createdAt,value
2023-01-09T00:00:49.220Z,101567.28
2023-01-09T00:03:16.396Z,101565.78
2023-01-09T00:05:43.643Z,101572.06
2023-01-09T00:08:10.778Z,101570.00
2023-01-09T00:10:37.985Z,101563.91
2023-01-09T00:13:05.069Z,101571.72
2023-01-09T00:15:32.243Z,101578.25
2023-01-09T00:17:59.431Z,101579.91
2023-01-09T00:20:26.578Z,101573.25
2023-01-09T00:22:53.638Z,101574.03
2023-01-09T00:25:22.824Z,101581.38
2023-01-09T00:27:49.968Z,101588.41
2023-01-09T00:30:17.133Z,101592.53
2023-01-09T00:32:44.344Z,101588.06
2023-01-09T00:35:15.813Z,101596.19
2023-01-09T00:37:42.926Z,101593.97
2023-01-09T00:40:11.262Z,101594.59
2023-01-09T00:42:39.323Z,101607.69
2023-01-09T00:45:11.499Z,101603.94
2023-01-09T00:47:46.934Z,101615.34
2023-01-09T00:50:23.534Z,101602.53
2023-01-09T00:52:53.321Z,101611.56
2023-01-09T00:55:20.881Z,101604.16
2023-01-09T00:57:48.400Z,101603.69
2023-01-09T01:00:16.275Z,101598.13
2023-01-09T01:02:43.464Z,101605.53
2023-01-09T01:05:28.975Z,101569.06
2023-01-09T01:07:56.070Z,101593.72
2023-01-09T01:10:25.631Z,101588.47
2023-01-09T01:12:53.766Z,101601.44
2023-01-09T01:15:21.762Z,101593.63
2023-01-09T01:17:49.000Z,101602.03
2023-01-09T01:20:18.459Z,101604.03
2023-01-09T01:22:45.939Z,101609.47
2023-01-09T01:25:15.199Z,101609.78
2023-01-09T01:27:42.372Z,101605.56
2023-01-09T01:30:13.453Z,101606.25
2023-01-09T01:32:41.086Z,101592.97
2023-01-09T01:35:09.099Z,101604.00
2023-01-09T01:37:38.293Z,101595.59
2023-01-09T01:40:07.401Z,101598.47
2023-01-09T01:42:34.481Z,101601.44
2023-01-09T01:45:15.116Z,101606.56
2023-01-09T01:47:50.925Z,101605.81
2023-01-09T01:50:59.538Z,101622.38
2023-01-09T01:53:35.605Z,101625.06
2023-01-09T01:56:16.697Z,101627.25
2023-01-09T01:59:06.778Z,101629.53
2023-01-09T02:01:34.836Z,101620.50
2023-01-09T02:04:02.761Z,101625.66
2023-01-09T02:06:32.835Z,101632.50
2023-01-09T02:09:01.402Z,101625.56
2023-01-09T02:11:29.363Z,101632.41
2023-01-09T02:13:56.875Z,101633.88
2023-01-09T02:16:38.925Z,101622.22
2023-01-09T02:19:21.211Z,101629.72
2023-01-09T02:22:11.450Z,101632.22
2023-01-09T02:25:17.196Z,101633.94
2023-01-09T02:28:21.404Z,101634.00
2023-01-09T02:31:06.347Z,101623.25
2023-01-09T02:33:51.038Z,101618.13
2023-01-09T02:36:25.121Z,101628.00
2023-01-09T02:39:19.842Z,101642.41
2023-01-09T02:42:00.532Z,101638.53
2023-01-09T02:44:30.669Z,101635.81
2023-01-09T02:47:03.858Z,101615.38
2023-01-09T02:49:33.258Z,101629.19
2023-01-09T02:52:37.381Z,101635.81
2023-01-09T02:55:07.269Z,101647.00
2023-01-09T02:57:49.646Z,101637.16
2023-01-09T03:00:32.538Z,101644.19
2023-01-09T03:03:23.025Z,101642.34
2023-01-09T03:06:35.393Z,101646.03
2023-01-09T03:09:12.204Z,101650.41
2023-01-09T03:11:44.083Z,101641.91
2023-01-09T03:14:16.310Z,101646.09
2023-01-09T03:16:48.396Z,101649.41
2023-01-09T03:19:19.439Z,101656.53
2023-01-09T03:21:47.427Z,101653.25
2023-01-09T03:24:14.870Z,101655.81
2023-01-09T03:26:42.749Z,101638.97
2023-01-09T03:29:10.149Z,101655.16
2023-01-09T03:31:37.314Z,101656.56
2023-01-09T03:34:04.701Z,101653.72
2023-01-09T03:36:31.767Z,101657.78
2023-01-09T03:38:58.911Z,101655.16
2023-01-09T03:41:25.980Z,101671.69
2023-01-09T03:43:53.006Z,101666.59
2023-01-09T03:46:20.049Z,101661.09
2023-01-09T03:48:48.080Z,101642.31
2023-01-09T03:51:15.164Z,101669.88
2023-01-09T03:53:42.255Z,101661.88
2023-01-09T03:56:09.416Z,101658.88
2023-01-09T03:58:36.537Z,101656.66
2023-01-09T04:01:05.804Z,101670.84
2023-01-09T04:03:33.119Z,101668.34
2023-01-09T04:06:00.197Z,101658.91
2023-01-09T04:08:27.326Z,101660.66
2023-01-09T04:10:54.397Z,101658.25
2023-01-09T04:13:21.542Z,101661.59
2023-01-09T04:15:49.067Z,101665.94
2023-01-09T04:18:16.611Z,101652.88
2023-01-09T04:20:48.591Z,101668.50
2023-01-09T04:23:16.504Z,101668.28
2023-01-09T04:25:43.688Z,101673.94
2023-01-09T04:28:10.761Z,101682.19
2023-01-09T04:30:37.896Z,101680.28
2023-01-09T04:33:05.004Z,101685.28
2023-01-09T04:35:32.125Z,101691.41
2023-01-09T04:38:00.873Z,101692.06
2023-01-09T04:40:28.307Z,101700.53
2023-01-09T04:42:55.434Z,101703.00
2023-01-09T04:45:22.623Z,101696.91
2023-01-09T04:47:49.744Z,101709.31
2023-01-09T04:50:17.110Z,101695.56
2023-01-09T04:52:44.375Z,101702.41
2023-01-09T04:55:11.530Z,101695.91
2023-01-09T04:57:39.843Z,101709.13
2023-01-09T05:00:09.904Z,101714.38
2023-01-09T05:02:37.759Z,101704.31
2023-01-09T05:05:06.464Z,101708.91
2023-01-09T05:07:34.177Z,101711.66
2023-01-09T05:10:02.501Z,101714.03
2023-01-09T05:12:33.203Z,101715.25
2023-01-09T05:15:00.394Z,101713.19
2023-01-09T05:17:27.481Z,101709.66
2023-01-09T05:19:54.646Z,101711.09
2023-01-09T05:22:21.749Z,101707.28
2023-01-09T05:24:48.846Z,101707.25
2023-01-09T05:27:15.946Z,101725.81
2023-01-09T05:29:42.995Z,101716.66
2023-01-09T05:32:10.155Z,101719.56
2023-01-09T05:34:37.284Z,101723.59
2023-01-09T05:37:04.460Z,101723.84
2023-01-09T05:39:31.662Z,101737.22
2023-01-09T05:41:58.725Z,101730.16
2023-01-09T05:44:25.791Z,101734.19
2023-01-09T05:46:52.866Z,101733.31
2023-01-09T05:49:19.980Z,101740.56
2023-01-09T05:51:47.029Z,101739.47
2023-01-09T05:54:14.177Z,101743.16
2023-01-09T05:56:42.768Z,101745.13
2023-01-09T05:59:10.078Z,101745.47
2023-01-09T06:01:37.273Z,101750.38
2023-01-09T06:04:04.477Z,101754.31
2023-01-09T06:06:31.564Z,101749.56
2023-01-09T06:08:58.679Z,101747.31
2023-01-09T06:11:25.731Z,101755.34
2023-01-09T06:13:52.853Z,101755.53
2023-01-09T06:16:19.995Z,101750.72
2023-01-09T06:18:47.147Z,101757.06
2023-01-09T06:21:14.271Z,101743.81
2023-01-09T06:23:41.338Z,101761.28
2023-01-09T06:26:08.644Z,101758.44
2023-01-09T06:28:35.749Z,101760.34
2023-01-09T06:31:02.973Z,101746.50
2023-01-09T06:33:30.169Z,101771.47
2023-01-09T06:35:57.248Z,101774.13
2023-01-09T06:38:24.361Z,101781.25
2023-01-09T06:40:51.805Z,101776.16
2023-01-09T06:43:18.942Z,101778.84
2023-01-09T06:45:46.090Z,101782.28
2023-01-09T06:48:13.265Z,101775.44
2023-01-09T06:50:40.639Z,101773.16
2023-01-09T06:53:08.178Z,101789.84
2023-01-09T06:55:35.441Z,101794.72
2023-01-09T06:58:02.684Z,101793.38
2023-01-09T07:00:31.549Z,101802.69
2023-01-09T07:02:58.819Z,101802.72
2023-01-09T07:05:26.018Z,101808.44
2023-01-09T07:07:53.223Z,101815.75
2023-01-09T07:10:20.400Z,101821.88
2023-01-09T07:12:47.550Z,101819.03
2023-01-09T07:15:14.836Z,101822.97
2023-01-09T07:17:41.927Z,101820.59
2023-01-09T07:20:09.793Z,101822.47
2023-01-09T07:22:37.246Z,101813.22
2023-01-09T07:25:04.791Z,101833.25
2023-01-09T07:27:31.937Z,101825.16
2023-01-09T07:29:59.031Z,101825.06
2023-01-09T07:32:26.212Z,101829.47
2023-01-09T07:34:55.046Z,101831.56
2023-01-09T07:37:22.088Z,101835.66
2023-01-09T07:39:49.151Z,101830.25
2023-01-09T07:42:16.431Z,101843.53
2023-01-09T07:44:43.676Z,101850.47
2023-01-09T07:47:10.964Z,101843.56
2023-01-09T07:49:38.035Z,101841.81
2023-01-09T07:52:05.212Z,101846.38
2023-01-09T07:54:32.411Z,101833.56
2023-01-09T07:56:59.603Z,101843.97
2023-01-09T07:59:28.939Z,101842.34
2023-01-09T08:01:56.824Z,101847.47
2023-01-09T08:04:24.068Z,101840.88
2023-01-09T08:06:51.180Z,101842.63
2023-01-09T08:09:18.946Z,101840.53
2023-01-09T08:11:46.021Z,101835.53
2023-01-09T08:14:13.258Z,101827.44
2023-01-09T08:16:40.404Z,101835.75
2023-01-09T08:19:07.607Z,101835.84
2023-01-09T08:21:34.751Z,101834.16
2023-01-09T08:24:01.902Z,101832.13
2023-01-09T08:26:29.110Z,101837.69
2023-01-09T08:28:56.278Z,101838.91
2023-01-09T08:31:23.480Z,101835.34
2023-01-09T08:33:50.896Z,101831.09
2023-01-09T08:36:18.025Z,101836.38
2023-01-09T08:38:45.131Z,101834.06
2023-01-09T08:41:30.652Z,101829.72
2023-01-09T08:44:16.168Z,101834.47
2023-01-09T08:47:01.788Z,101828.44
2023-01-09T08:49:28.886Z,101831.44
2023-01-09T08:51:55.968Z,101826.59
2023-01-09T08:54:23.053Z,101846.31
2023-01-09T08:56:50.229Z,101835.97
2023-01-09T08:59:17.467Z,101844.25
2023-01-09T09:01:44.785Z,101837.66
2023-01-09T09:04:11.990Z,101836.63
2023-01-09T09:06:39.051Z,101834.13
2023-01-09T09:09:06.945Z,101835.84
2023-01-09T09:11:34.478Z,101833.53
2023-01-09T09:14:22.612Z,101823.50
2023-01-09T09:16:51.994Z,101828.53
2023-01-09T09:19:19.175Z,101826.25
2023-01-09T09:21:46.327Z,101820.22
2023-01-09T09:24:13.532Z,101810.69
2023-01-09T09:26:41.511Z,101824.66
2023-01-09T09:29:09.402Z,101803.09
2023-01-09T09:31:38.823Z,101827.34
2023-01-09T09:34:07.184Z,101815.53
2023-01-09T09:36:34.718Z,101825.59
2023-01-09T09:39:02.920Z,101824.19
2023-01-09T09:42:24.837Z,101824.59
2023-01-09T09:45:19.629Z,101821.00
2023-01-09T09:47:52.358Z,101818.16
2023-01-09T09:51:03.102Z,101816.41
2023-01-09T09:53:54.050Z,101799.72
2023-01-09T09:56:23.509Z,101817.72
2023-01-09T09:59:03.774Z,101818.47
2023-01-09T10:02:05.054Z,101818.81
2023-01-09T10:04:36.956Z,101811.59
2023-01-09T10:07:15.824Z,101818.75
2023-01-09T10:09:50.565Z,101810.53
2023-01-09T10:12:27.659Z,101823.09
2023-01-09T10:14:57.709Z,101811.09
2023-01-09T10:17:46.452Z,101811.34
2023-01-09T10:20:25.605Z,101806.44
2023-01-09T10:23:15.396Z,101816.53
2023-01-09T10:26:01.080Z,101813.28
2023-01-09T10:28:49.965Z,101816.03
2023-01-09T10:31:30.490Z,101814.50
2023-01-09T10:34:14.584Z,101816.91
2023-01-09T10:37:05.610Z,101818.81
2023-01-09T10:39:41.377Z,101819.97
2023-01-09T10:42:11.406Z,101821.56
2023-01-09T10:44:47.428Z,101829.13
2023-01-09T10:47:32.829Z,101808.16
2023-01-09T10:50:01.851Z,101827.56
2023-01-09T10:52:41.387Z,101835.06
2023-01-09T10:55:23.272Z,101828.63
2023-01-09T10:57:57.444Z,101829.09
2023-01-09T11:00:25.146Z,101826.41
2023-01-09T11:02:54.920Z,101819.28
2023-01-09T11:05:31.131Z,101802.56
2023-01-09T11:08:13.982Z,101840.78
2023-01-09T11:10:50.277Z,101840.38
2023-01-09T11:13:33.182Z,101840.06
2023-01-09T11:16:07.896Z,101841.84
2023-01-09T11:18:39.794Z,101848.13
2023-01-09T11:21:33.139Z,101847.72
2023-01-09T11:24:24.019Z,101845.97
2023-01-09T11:26:53.485Z,101846.03
2023-01-09T11:29:26.124Z,101847.31
2023-01-09T11:31:58.556Z,101863.59
2023-01-09T11:34:28.665Z,101838.84
2023-01-09T11:37:04.627Z,101855.94
2023-01-09T11:39:35.181Z,101853.66
2023-01-09T11:42:08.653Z,101866.66
2023-01-09T11:44:36.262Z,101863.63
2023-01-09T11:47:23.798Z,101871.69
2023-01-09T11:49:51.417Z,101868.56
2023-01-09T11:52:21.020Z,101876.16
2023-01-09T11:55:04.444Z,101872.00
2023-01-09T11:57:32.320Z,101866.22
2023-01-09T12:00:03.675Z,101856.56
2023-01-09T12:02:51.463Z,101870.03
2023-01-09T12:05:55.533Z,101870.41
2023-01-09T12:08:25.530Z,101855.00
2023-01-09T12:10:55.561Z,101872.31
2023-01-09T12:14:04.450Z,101861.44
2023-01-09T12:16:51.137Z,101863.75
2023-01-09T12:19:18.195Z,101864.88
2023-01-09T12:22:24.183Z,101843.81
2023-01-09T12:25:20.086Z,101852.66
2023-01-09T12:27:59.159Z,101857.25
2023-01-09T12:31:00.423Z,101863.34
2023-01-09T12:33:44.317Z,101854.75
2023-01-09T12:36:17.396Z,101863.81
2023-01-09T12:38:54.791Z,101855.06
2023-01-09T12:41:37.982Z,101853.72
2023-01-09T12:45:01.405Z,101848.41
2023-01-09T12:47:49.043Z,101813.06
2023-01-09T12:50:31.748Z,101849.47
2023-01-09T12:53:06.174Z,101845.06
2023-01-09T12:55:48.572Z,101851.22
2023-01-09T12:58:34.260Z,101861.34
2023-01-09T13:01:07.525Z,101853.63
2023-01-09T13:03:43.286Z,101860.69
2023-01-09T13:06:16.730Z,101859.53
2023-01-09T13:09:05.566Z,101872.84
2023-01-09T13:11:41.843Z,101881.22
2023-01-09T13:14:19.755Z,101887.03
2023-01-09T13:16:53.371Z,101859.53
2023-01-09T13:19:54.250Z,101879.28
2023-01-09T13:22:26.148Z,101858.94
2023-01-09T13:25:19.611Z,101872.25
2023-01-09T13:27:58.048Z,101876.44
2023-01-09T13:30:38.904Z,101893.44
2023-01-09T13:33:13.539Z,101905.63
2023-01-09T13:35:55.228Z,101901.66
2023-01-09T13:38:25.091Z,101909.59
2023-01-09T13:41:35.441Z,101908.38
2023-01-09T13:44:08.974Z,101903.38
2023-01-09T13:46:48.915Z,101906.72
2023-01-09T13:49:44.165Z,101915.47
2023-01-09T13:52:31.877Z,101906.88
2023-01-09T13:54:58.961Z,101902.22
2023-01-09T13:57:29.081Z,101902.75
2023-01-09T14:00:19.648Z,101905.56
2023-01-09T14:02:50.019Z,101910.28
2023-01-09T14:05:37.235Z,101916.84
2023-01-09T14:08:11.594Z,101918.56
2023-01-09T14:10:47.798Z,101886.28
2023-01-09T14:13:22.952Z,101908.09
2023-01-09T14:15:52.654Z,101893.41
2023-01-09T14:18:32.719Z,101914.25
2023-01-09T14:21:03.288Z,101913.31
2023-01-09T14:23:52.664Z,101906.91
2023-01-09T14:26:41.086Z,101902.41
2023-01-09T14:29:43.509Z,101905.97
2023-01-09T14:32:22.872Z,101898.19
2023-01-09T14:35:02.402Z,101908.44
2023-01-09T14:37:31.154Z,101902.09
2023-01-09T14:39:59.105Z,101903.41
2023-01-09T14:42:29.587Z,101918.28
2023-01-09T14:45:14.361Z,101899.59
2023-01-09T14:47:49.311Z,101915.97
2023-01-09T14:50:19.031Z,101920.28
2023-01-09T14:52:53.279Z,101916.31
2023-01-09T14:55:30.086Z,101923.53
2023-01-09T14:58:10.993Z,101912.75
2023-01-09T15:00:47.833Z,101911.69
2023-01-09T15:03:15.867Z,101915.19
2023-01-09T15:05:45.799Z,101922.78
2023-01-09T15:08:18.264Z,101923.41
2023-01-09T15:10:48.094Z,101923.44
2023-01-09T15:13:37.702Z,101932.94
2023-01-09T15:16:06.662Z,101922.94
2023-01-09T15:18:42.062Z,101906.91
2023-01-09T15:21:19.375Z,101931.03
2023-01-09T15:23:46.594Z,101918.31
2023-01-09T15:26:26.330Z,101933.06
2023-01-09T15:29:00.960Z,101925.34
2023-01-09T15:31:28.966Z,101946.19
2023-01-09T15:33:57.137Z,101914.94
2023-01-09T15:36:27.347Z,101932.69
2023-01-09T15:38:54.937Z,101930.06
2023-01-09T15:41:48.857Z,101925.81
2023-01-09T15:44:28.518Z,101919.94
2023-01-09T15:47:00.740Z,101916.41
2023-01-09T15:49:28.228Z,101921.09
2023-01-09T15:51:56.165Z,101923.38
2023-01-09T15:54:30.409Z,101902.25
2023-01-09T15:57:25.264Z,101910.09
2023-01-09T15:59:53.365Z,101905.28
2023-01-09T16:02:41.108Z,101924.22
2023-01-09T16:05:18.339Z,101919.72
2023-01-09T16:07:47.140Z,101917.78
2023-01-09T16:10:25.541Z,101925.97
2023-01-09T16:12:53.335Z,101926.16
2023-01-09T16:15:21.129Z,101931.97
2023-01-09T16:18:28.003Z,101929.75
2023-01-09T16:21:03.288Z,101926.06
2023-01-09T16:23:33.184Z,101918.34
2023-01-09T16:26:12.992Z,101948.81
2023-01-09T16:28:43.177Z,101955.53
2023-01-09T16:31:28.161Z,101957.56
2023-01-09T16:33:59.568Z,101972.34
2023-01-09T16:36:28.006Z,101956.53
2023-01-09T16:38:56.472Z,101976.50
2023-01-09T16:41:42.368Z,101961.72
2023-01-09T16:44:10.708Z,101957.34
2023-01-09T16:46:43.943Z,101972.56
2023-01-09T16:49:27.170Z,101978.41
2023-01-09T16:51:55.184Z,101977.06
2023-01-09T16:54:22.302Z,101972.63
2023-01-09T16:56:52.616Z,101951.63
2023-01-09T16:59:25.099Z,101966.28
2023-01-09T17:01:53.639Z,101968.03
2023-01-09T17:04:21.330Z,101948.75
2023-01-09T17:06:49.267Z,101964.66
2023-01-09T17:09:24.076Z,101963.25
2023-01-09T17:11:52.443Z,101966.22
2023-01-09T17:14:19.597Z,101959.34
2023-01-09T17:16:46.908Z,101962.28
2023-01-09T17:19:18.965Z,101975.34
2023-01-09T17:21:46.506Z,101963.78
2023-01-09T17:24:32.065Z,101957.38
2023-01-09T17:27:19.110Z,101961.88
2023-01-09T17:29:46.505Z,101960.13
2023-01-09T17:32:19.322Z,101964.38
2023-01-09T17:34:46.433Z,101955.72
2023-01-09T17:37:19.080Z,101951.50
2023-01-09T17:39:46.428Z,101948.59
2023-01-09T17:42:13.610Z,101963.53
2023-01-09T17:44:40.847Z,101959.97
2023-01-09T17:47:15.276Z,101958.59
2023-01-09T17:49:42.860Z,101978.06
2023-01-09T17:52:09.986Z,101961.91
2023-01-09T17:54:37.090Z,101953.28
2023-01-09T17:57:04.512Z,101948.69
2023-01-09T17:59:31.718Z,101972.19
2023-01-09T18:01:58.918Z,101958.09
2023-01-09T18:04:26.041Z,101953.50
2023-01-09T18:06:54.682Z,101970.97
2023-01-09T18:09:21.849Z,101958.16
2023-01-09T18:11:48.939Z,101964.75
2023-01-09T18:14:17.213Z,101969.47
2023-01-09T18:16:45.386Z,101971.66
2023-01-09T18:19:12.893Z,101971.53
2023-01-09T18:21:40.101Z,101982.88
2023-01-09T18:24:08.860Z,101988.63
2023-01-09T18:26:35.956Z,101978.97
2023-01-09T18:29:03.658Z,101979.66
2023-01-09T18:31:31.602Z,101965.50
2023-01-09T18:34:02.562Z,101979.53
2023-01-09T18:36:30.933Z,101997.00
2023-01-09T18:39:00.332Z,102004.00
2023-01-09T18:41:28.726Z,101998.06
2023-01-09T18:43:58.340Z,101983.97
2023-01-09T18:46:30.844Z,102000.44
2023-01-09T18:49:00.262Z,101994.13
2023-01-09T18:51:28.649Z,101987.25
2023-01-09T18:53:55.978Z,101991.59
2023-01-09T18:56:24.892Z,101986.78
2023-01-09T18:58:57.338Z,101988.63
2023-01-09T19:01:26.025Z,101976.88
2023-01-09T19:03:53.412Z,101980.75
2023-01-09T19:06:20.708Z,101956.41
2023-01-09T19:08:48.097Z,101991.69
2023-01-09T19:11:15.597Z,101984.09
2023-01-09T19:13:42.800Z,101995.50
2023-01-09T19:16:10.664Z,101994.78
2023-01-09T19:18:41.967Z,101979.63
2023-01-09T19:21:11.443Z,101978.41
2023-01-09T19:23:39.836Z,101996.75
2023-01-09T19:26:09.079Z,101990.97
2023-01-09T19:28:36.649Z,102000.22
2023-01-09T19:31:03.963Z,101984.81
2023-01-09T19:33:31.099Z,101992.47
2023-01-09T19:35:58.250Z,101978.88
2023-01-09T19:38:26.942Z,101984.81
2023-01-09T19:40:54.102Z,101981.25
2023-01-09T19:43:27.535Z,101993.84
2023-01-09T19:45:56.179Z,101982.25
2023-01-09T19:48:24.334Z,101975.81
2023-01-09T19:50:51.439Z,101992.72
2023-01-09T19:53:18.583Z,101998.06
2023-01-09T19:55:45.658Z,101998.97
2023-01-09T19:58:12.860Z,102001.94
2023-01-09T20:00:40.016Z,102003.13
2023-01-09T20:03:07.135Z,102003.16
2023-01-09T20:05:34.333Z,101997.94
2023-01-09T20:08:05.725Z,101984.22
2023-01-09T20:10:33.838Z,101990.75
2023-01-09T20:13:00.926Z,101986.06
2023-01-09T20:15:28.025Z,101972.66
2023-01-09T20:17:55.087Z,101985.53
2023-01-09T20:20:22.339Z,101988.28
2023-01-09T20:22:49.382Z,101985.44
2023-01-09T20:25:16.473Z,101997.22
2023-01-09T20:27:43.575Z,101998.00
2023-01-09T20:30:11.292Z,101969.56
2023-01-09T20:32:38.522Z,101987.91
2023-01-09T20:35:06.056Z,101977.44
2023-01-09T20:37:33.257Z,101998.50
2023-01-09T20:40:00.583Z,102005.75
2023-01-09T20:42:27.639Z,101985.38
2023-01-09T20:44:55.766Z,101990.56
2023-01-09T20:47:22.853Z,101996.56
2023-01-09T20:49:49.946Z,101988.41
2023-01-09T20:52:17.000Z,101989.72
2023-01-09T20:54:46.102Z,101976.78
2023-01-09T20:57:13.237Z,102004.84
2023-01-09T20:59:40.450Z,102011.16
2023-01-09T21:02:14.550Z,101979.72
2023-01-09T21:04:41.655Z,102011.38
2023-01-09T21:07:10.893Z,102003.53
2023-01-09T21:09:38.050Z,102008.47
2023-01-09T21:12:24.728Z,102026.81
2023-01-09T21:14:51.976Z,102034.06
2023-01-09T21:17:19.161Z,102037.97
2023-01-09T21:19:46.398Z,102031.56
2023-01-09T21:22:13.519Z,102037.03
2023-01-09T21:24:40.601Z,102021.59
2023-01-09T21:27:07.839Z,102016.38
2023-01-09T21:29:34.997Z,102014.44
2023-01-09T21:32:02.143Z,102012.19
2023-01-09T21:34:29.260Z,101998.50
2023-01-09T21:36:56.765Z,101982.09
2023-01-09T21:39:23.937Z,102009.63
2023-01-09T21:42:09.414Z,102013.34
2023-01-09T21:44:54.999Z,102012.81
2023-01-09T21:47:22.936Z,102021.47
2023-01-09T21:50:09.576Z,102010.69
2023-01-09T21:52:37.428Z,102025.81
2023-01-09T21:55:04.903Z,102021.41
2023-01-09T21:57:32.152Z,102007.19
2023-01-09T21:59:59.319Z,102016.81
2023-01-09T22:02:26.432Z,102025.16
2023-01-09T22:04:59.986Z,102011.97
2023-01-09T22:07:27.134Z,102025.63
2023-01-09T22:09:54.216Z,102040.72
2023-01-09T22:12:21.266Z,102046.09
2023-01-09T22:14:48.307Z,102043.81
2023-01-09T22:17:15.431Z,102050.75
2023-01-09T22:19:42.535Z,102036.56
2023-01-09T22:22:09.673Z,102052.22
2023-01-09T22:24:36.831Z,102054.81
2023-01-09T22:27:04.348Z,102054.81
2023-01-09T22:29:31.555Z,102059.31
2023-01-09T22:31:58.692Z,102063.94
2023-01-09T22:34:25.966Z,102047.06
2023-01-09T22:36:53.069Z,102046.16
2023-01-09T22:39:20.340Z,102051.88
2023-01-09T22:41:52.550Z,102026.44
2023-01-09T22:44:19.626Z,102031.69
2023-01-09T22:46:46.758Z,102031.84
2023-01-09T22:49:14.319Z,102038.13
2023-01-09T22:51:41.454Z,102034.09
2023-01-09T22:54:08.757Z,102028.38
2023-01-09T22:56:35.916Z,102027.00
2023-01-09T22:59:03.108Z,102030.88
2023-01-09T23:01:30.209Z,102008.31
2023-01-09T23:03:57.279Z,102010.19
2023-01-09T23:06:25.504Z,102009.59
2023-01-09T23:08:53.120Z,102016.84
2023-01-09T23:11:45.652Z,102015.41
2023-01-09T23:14:13.094Z,102011.28
2023-01-09T23:16:40.875Z,102018.00
2023-01-09T23:19:14.751Z,102023.59
2023-01-09T23:21:42.860Z,102020.81
2023-01-09T23:24:11.070Z,102030.88
2023-01-09T23:26:41.494Z,102033.50
2023-01-09T23:29:08.568Z,102029.06
2023-01-09T23:31:36.351Z,102011.28
2023-01-09T23:34:04.780Z,102032.38
2023-01-09T23:36:31.911Z,102016.13
2023-01-09T23:38:59.805Z,102020.13
2023-01-09T23:41:45.796Z,102018.69
2023-01-09T23:44:12.883Z,102026.50
2023-01-09T23:46:39.980Z,102015.06
2023-01-09T23:49:07.150Z,102013.72
2023-01-09T23:51:34.317Z,102006.72
2023-01-09T23:54:01.395Z,102025.09
2023-01-09T23:56:30.737Z,102012.97
2023-01-09T23:58:58.172Z,102021.22
